createdAt,value
2019-06-27T00:01:48.135Z,11.40
2019-06-27T00:04:16.643Z,11.20
2019-06-27T00:06:45.100Z,11.90
2019-06-27T00:09:13.719Z,12.97
2019-06-27T00:11:42.234Z,13.20
2019-06-27T00:14:10.680Z,13.10
2019-06-27T00:16:39.185Z,12.53
2019-06-27T00:19:07.643Z,12.40
2019-06-27T00:21:36.154Z,13.20
2019-06-27T00:24:04.708Z,12.63
2019-06-27T00:26:33.238Z,12.53
2019-06-27T00:29:01.762Z,12.50
2019-06-27T00:31:30.221Z,13.00
2019-06-27T00:33:59.413Z,11.80
2019-06-27T00:36:28.135Z,12.40
2019-06-27T00:38:56.576Z,12.00
2019-06-27T00:41:25.133Z,11.53
2019-06-27T00:43:53.555Z,12.80
2019-06-27T00:46:22.020Z,11.90
2019-06-27T00:48:50.447Z,12.63
2019-06-27T00:51:18.900Z,12.93
2019-06-27T00:53:47.352Z,11.13
2019-06-27T00:56:15.782Z,12.00
2019-06-27T00:58:44.236Z,11.53
2019-06-27T01:01:12.967Z,12.27
2019-06-27T01:03:41.497Z,12.83
2019-06-27T01:06:09.921Z,11.40
2019-06-27T01:08:38.451Z,11.50
2019-06-27T01:11:07.027Z,12.13
2019-06-27T01:13:35.483Z,11.93
2019-06-27T01:16:04.091Z,12.03
2019-06-27T01:18:32.540Z,11.80
2019-06-27T01:21:01.065Z,10.90
2019-06-27T01:23:29.729Z,12.10
2019-06-27T01:25:58.236Z,11.40
2019-06-27T01:28:26.683Z,11.40
2019-06-27T01:30:56.881Z,11.50
2019-06-27T01:33:25.333Z,12.57
2019-06-27T01:35:53.763Z,12.13
2019-06-27T01:38:22.217Z,12.30
2019-06-27T01:40:51.445Z,11.80
2019-06-27T01:43:19.914Z,12.27
2019-06-27T01:45:56.214Z,11.90
2019-06-27T01:48:24.809Z,12.80
2019-06-27T01:50:53.412Z,12.73
2019-06-27T01:53:21.864Z,12.77
2019-06-27T01:55:50.299Z,12.17
2019-06-27T01:58:18.762Z,13.47
2019-06-27T02:00:47.264Z,11.73
2019-06-27T02:03:15.967Z,12.10
2019-06-27T02:05:44.475Z,11.47
2019-06-27T02:08:12.923Z,12.47
2019-06-27T02:10:42.023Z,11.90
2019-06-27T02:13:10.452Z,11.60
2019-06-27T02:15:38.975Z,11.60
2019-06-27T02:18:07.476Z,12.17
2019-06-27T02:20:36.005Z,11.27
2019-06-27T02:23:04.458Z,12.10
2019-06-27T02:25:32.908Z,12.40
2019-06-27T02:28:04.216Z,12.60
2019-06-27T02:30:40.128Z,12.90
2019-06-27T02:33:09.860Z,12.37
2019-06-27T02:35:38.380Z,13.10
2019-06-27T02:38:07.182Z,11.63
2019-06-27T02:40:37.249Z,11.93
2019-06-27T02:43:05.904Z,12.27
2019-06-27T02:45:34.360Z,13.10
2019-06-27T02:48:02.797Z,12.50
2019-06-27T02:50:31.400Z,12.57
2019-06-27T02:52:59.906Z,13.20
2019-06-27T02:55:28.716Z,12.20
2019-06-27T02:57:57.445Z,12.80
2019-06-27T03:00:25.911Z,12.37
2019-06-27T03:02:54.431Z,12.33
2019-06-27T03:05:23.013Z,10.87
2019-06-27T03:07:51.581Z,12.60
2019-06-27T03:10:20.477Z,13.90
2019-06-27T03:12:48.927Z,12.90
2019-06-27T03:15:19.072Z,12.97
2019-06-27T03:17:47.624Z,12.70
2019-06-27T03:20:18.381Z,13.07
2019-06-27T03:22:46.794Z,13.60
2019-06-27T03:25:15.246Z,13.03
2019-06-27T03:27:43.685Z,14.27
2019-06-27T03:30:12.783Z,12.97
2019-06-27T03:32:41.288Z,12.50
2019-06-27T03:35:10.084Z,12.70
2019-06-27T03:37:38.582Z,13.37
2019-06-27T03:40:08.054Z,12.67
2019-06-27T03:42:36.512Z,12.17
2019-06-27T03:45:07.164Z,13.47
2019-06-27T03:47:35.607Z,12.23
2019-06-27T03:50:07.989Z,12.70
2019-06-27T03:52:36.453Z,13.70
2019-06-27T03:55:05.626Z,13.80
2019-06-27T03:57:34.082Z,13.83
2019-06-27T04:00:02.807Z,13.77
2019-06-27T04:02:31.255Z,14.07
2019-06-27T04:04:59.692Z,14.60
2019-06-27T04:07:28.149Z,13.27
2019-06-27T04:09:56.603Z,13.67
2019-06-27T04:12:26.656Z,13.60
2019-06-27T04:14:55.088Z,12.33
2019-06-27T04:17:25.080Z,13.83
2019-06-27T04:19:53.673Z,14.23
2019-06-27T04:22:22.117Z,12.87
2019-06-27T04:24:50.560Z,14.13
2019-06-27T04:27:19.002Z,14.00
2019-06-27T04:29:47.508Z,15.23
2019-06-27T04:32:16.023Z,15.17
2019-06-27T04:34:44.492Z,13.60
2019-06-27T04:37:12.945Z,14.10
2019-06-27T04:39:41.396Z,14.57
2019-06-27T04:42:09.858Z,14.63
2019-06-27T04:44:38.333Z,14.67
2019-06-27T04:47:06.780Z,14.50
2019-06-27T04:49:35.241Z,13.93
2019-06-27T04:52:03.707Z,14.73
2019-06-27T04:54:32.231Z,14.43
2019-06-27T04:57:00.664Z,14.97
2019-06-27T04:59:30.857Z,13.23
2019-06-27T05:01:59.362Z,14.57
2019-06-27T05:04:30.788Z,14.23
2019-06-27T05:06:59.244Z,14.80
2019-06-27T05:09:27.697Z,13.70
2019-06-27T05:11:56.195Z,14.87
2019-06-27T05:14:24.665Z,14.60
2019-06-27T05:16:53.074Z,14.50
2019-06-27T05:19:21.540Z,15.73
2019-06-27T05:21:49.969Z,14.90
2019-06-27T05:24:18.436Z,13.97
2019-06-27T05:26:47.097Z,14.90
2019-06-27T05:29:15.548Z,13.80
2019-06-27T05:31:44.184Z,13.47
2019-06-27T05:34:12.643Z,12.83
2019-06-27T05:36:41.081Z,12.77
2019-06-27T05:39:09.527Z,14.10
2019-06-27T05:41:38.013Z,14.40
2019-06-27T05:44:06.479Z,15.10
2019-06-27T05:46:34.908Z,14.37
2019-06-27T05:49:03.358Z,13.67
2019-06-27T05:51:31.787Z,13.57
2019-06-27T05:54:00.221Z,14.53
2019-06-27T05:56:28.663Z,12.47
2019-06-27T05:58:57.095Z,13.00
2019-06-27T06:01:25.632Z,13.47
2019-06-27T06:03:54.068Z,13.60
2019-06-27T06:06:22.585Z,13.00
2019-06-27T06:08:51.079Z,12.00
2019-06-27T06:11:19.731Z,12.63
2019-06-27T06:13:48.155Z,12.93
2019-06-27T06:16:16.601Z,12.43
2019-06-27T06:18:45.032Z,12.50
2019-06-27T06:21:13.487Z,12.30
2019-06-27T06:23:43.247Z,11.07
2019-06-27T06:26:11.693Z,12.77
2019-06-27T06:28:40.140Z,12.17
2019-06-27T06:31:08.710Z,12.07
2019-06-27T06:33:37.143Z,12.20
2019-06-27T06:36:05.682Z,12.87
2019-06-27T06:38:34.178Z,11.93
2019-06-27T06:41:02.781Z,12.83
2019-06-27T06:43:31.221Z,12.50
2019-06-27T06:45:59.671Z,13.43
2019-06-27T06:48:28.113Z,12.63
2019-06-27T06:50:56.559Z,11.60
2019-06-27T06:53:44.332Z,12.63
2019-06-27T06:56:12.778Z,12.50
2019-06-27T06:58:41.482Z,12.20
2019-06-27T07:01:10.184Z,11.37
2019-06-27T07:03:38.633Z,10.40
2019-06-27T07:06:07.120Z,12.00
2019-06-27T07:08:35.572Z,11.40
2019-06-27T07:11:04.007Z,10.83
2019-06-27T07:13:32.481Z,10.63
2019-06-27T07:16:00.911Z,11.10
2019-06-27T07:18:29.374Z,11.20
2019-06-27T07:20:57.875Z,12.90
2019-06-27T07:23:26.368Z,13.33
2019-06-27T07:25:54.904Z,12.03
2019-06-27T07:28:23.354Z,13.63
2019-06-27T07:30:51.792Z,12.20
2019-06-27T07:33:20.320Z,12.70
2019-06-27T07:35:48.750Z,13.47
2019-06-27T07:38:17.215Z,12.00
2019-06-27T07:40:45.721Z,12.50
2019-06-27T07:43:15.814Z,11.87
2019-06-27T07:45:44.250Z,11.87
2019-06-27T07:48:12.702Z,12.53
2019-06-27T07:50:41.149Z,13.30
2019-06-27T07:53:09.597Z,13.17
2019-06-27T07:55:38.032Z,12.90
2019-06-27T07:58:06.510Z,12.33
2019-06-27T08:00:35.020Z,12.70
2019-06-27T08:03:04.073Z,12.40
2019-06-27T08:05:32.647Z,12.97
2019-06-27T08:08:01.103Z,14.10
2019-06-27T08:10:29.524Z,11.57
2019-06-27T08:12:57.972Z,12.57
2019-06-27T08:15:26.427Z,12.90
2019-06-27T08:17:54.936Z,11.60
2019-06-27T08:20:23.512Z,13.73
2019-06-27T08:22:52.095Z,12.30
2019-06-27T08:25:20.670Z,12.43
2019-06-27T08:27:49.244Z,13.40
2019-06-27T08:30:17.923Z,15.03
2019-06-27T08:32:46.372Z,14.20
2019-06-27T08:35:15.118Z,13.13
2019-06-27T08:37:45.119Z,13.23
2019-06-27T08:40:14.323Z,12.60
2019-06-27T08:42:44.191Z,13.30
2019-06-27T08:45:14.686Z,12.97
2019-06-27T08:47:43.330Z,13.50
2019-06-27T08:50:12.127Z,12.67
2019-06-27T08:52:40.551Z,14.80
2019-06-27T08:55:09.070Z,14.30
2019-06-27T08:57:37.548Z,13.77
2019-06-27T09:00:08.146Z,14.07
2019-06-27T09:02:36.662Z,12.83
2019-06-27T09:05:07.129Z,14.00
2019-06-27T09:07:35.664Z,13.20
2019-06-27T09:10:05.697Z,12.67
2019-06-27T09:12:34.132Z,12.70
2019-06-27T09:15:02.919Z,12.60
2019-06-27T09:17:31.362Z,14.33
2019-06-27T09:19:59.815Z,13.87
2019-06-27T09:22:28.236Z,12.47
2019-06-27T09:24:56.726Z,12.87
2019-06-27T09:27:25.218Z,11.63
2019-06-27T09:29:53.861Z,11.30
2019-06-27T09:32:25.957Z,12.00
2019-06-27T09:34:52.604Z,11.90
2019-06-27T09:37:21.514Z,11.77
2019-06-27T09:39:50.125Z,12.70
2019-06-27T09:42:18.544Z,12.23
2019-06-27T09:44:46.974Z,12.03
2019-06-27T09:47:15.438Z,12.60
2019-06-27T09:49:45.524Z,11.43
2019-06-27T09:52:14.092Z,11.67
2019-06-27T09:54:42.715Z,13.20
2019-06-27T09:57:11.227Z,13.23
2019-06-27T09:59:39.659Z,11.40
2019-06-27T10:02:08.271Z,11.67
2019-06-27T10:04:36.714Z,12.30
2019-06-27T10:07:05.359Z,11.23
2019-06-27T10:09:33.810Z,11.67
2019-06-27T10:12:02.474Z,12.03
2019-06-27T10:14:30.914Z,11.90
2019-06-27T10:16:59.435Z,11.90
2019-06-27T10:19:27.863Z,12.33
2019-06-27T10:21:56.309Z,11.70
2019-06-27T10:24:24.880Z,12.77
2019-06-27T10:26:53.391Z,11.97
2019-06-27T10:29:21.884Z,11.93
2019-06-27T10:31:50.403Z,11.80
2019-06-27T10:34:18.941Z,12.27
2019-06-27T10:36:47.547Z,12.40
2019-06-27T10:39:15.996Z,11.67
2019-06-27T10:41:44.546Z,11.40
2019-06-27T10:44:13.088Z,11.33
2019-06-27T10:46:43.062Z,13.30
2019-06-27T10:49:11.620Z,12.20
2019-06-27T10:51:40.186Z,11.47
2019-06-27T10:54:09.004Z,12.20
2019-06-27T10:56:40.060Z,11.90
2019-06-27T10:59:07.788Z,12.47
2019-06-27T11:01:36.295Z,10.20
2019-06-27T11:04:06.284Z,11.10
2019-06-27T11:06:34.792Z,11.97
2019-06-27T11:09:04.193Z,11.70
2019-06-27T11:11:32.757Z,11.47
2019-06-27T11:14:01.266Z,11.50
2019-06-27T11:16:29.723Z,12.30
2019-06-27T11:18:59.305Z,12.10
2019-06-27T11:21:27.754Z,10.70
2019-06-27T11:23:56.369Z,11.83
2019-06-27T11:26:24.804Z,11.23
2019-06-27T11:28:53.247Z,11.23
2019-06-27T11:31:21.688Z,10.77
2019-06-27T11:33:50.127Z,11.73
2019-06-27T11:36:18.584Z,11.30
2019-06-27T11:38:47.392Z,10.80
2019-06-27T11:41:15.961Z,10.10
2019-06-27T11:43:44.430Z,11.20
2019-06-27T11:46:12.943Z,10.57
2019-06-27T11:48:41.419Z,12.00
2019-06-27T11:51:10.046Z,10.70
2019-06-27T11:53:38.495Z,11.87
2019-06-27T11:56:08.020Z,10.40
2019-06-27T11:58:36.503Z,10.47
2019-06-27T12:01:05.096Z,11.80
2019-06-27T12:03:48.399Z,10.87
2019-06-27T12:06:03.925Z,10.60
2019-06-27T12:08:32.355Z,10.53
2019-06-27T12:11:00.909Z,10.63
2019-06-27T12:13:29.480Z,9.97
2019-06-27T12:15:58.898Z,10.47
2019-06-27T12:18:27.334Z,10.70
2019-06-27T12:20:55.787Z,9.53
2019-06-27T12:23:24.213Z,9.70
2019-06-27T12:25:52.668Z,9.87
2019-06-27T12:28:22.650Z,10.10
2019-06-27T12:30:51.178Z,10.63
2019-06-27T12:33:19.735Z,9.90
2019-06-27T12:35:48.209Z,9.67
2019-06-27T12:38:16.688Z,9.30
2019-06-27T12:40:45.130Z,9.60
2019-06-27T12:43:14.640Z,10.03
2019-06-27T12:45:43.299Z,10.40
2019-06-27T12:48:11.828Z,11.10
2019-06-27T12:50:40.408Z,10.30
2019-06-27T12:53:08.865Z,11.10
2019-06-27T12:55:37.376Z,10.50
2019-06-27T12:58:05.892Z,10.27
2019-06-27T13:00:34.411Z,9.63
2019-06-27T13:03:02.852Z,10.00
2019-06-27T13:05:31.320Z,9.33
2019-06-27T13:07:59.738Z,9.40
2019-06-27T13:10:35.706Z,9.70
2019-06-27T13:13:06.651Z,8.90
2019-06-27T13:15:35.296Z,9.37
2019-06-27T13:18:03.761Z,8.87
2019-06-27T13:20:33.783Z,9.07
2019-06-27T13:23:02.239Z,8.80
2019-06-27T13:25:34.276Z,9.60
2019-06-27T13:28:02.428Z,9.00
2019-06-27T13:30:30.947Z,8.20
2019-06-27T13:32:59.414Z,9.73
2019-06-27T13:35:29.624Z,9.23
2019-06-27T13:37:58.089Z,9.00
2019-06-27T13:40:26.577Z,8.57
2019-06-27T13:42:55.768Z,9.30
2019-06-27T13:45:26.648Z,8.37
2019-06-27T13:47:54.659Z,8.60
2019-06-27T13:50:23.213Z,8.97
2019-06-27T13:52:54.627Z,9.40
2019-06-27T13:55:24.223Z,10.33
2019-06-27T13:57:52.585Z,8.30
2019-06-27T14:00:29.903Z,7.93
2019-06-27T14:02:58.373Z,8.70
2019-06-27T14:05:26.795Z,8.10
2019-06-27T14:07:55.251Z,8.77
2019-06-27T14:10:23.696Z,8.27
2019-06-27T14:12:52.225Z,8.10
2019-06-27T14:15:22.190Z,8.17
2019-06-27T14:17:50.899Z,9.00
2019-06-27T14:20:19.400Z,8.13
2019-06-27T14:22:47.831Z,8.00
2019-06-27T14:25:16.519Z,7.50
2019-06-27T14:27:44.958Z,8.10
2019-06-27T14:30:13.892Z,8.50
2019-06-27T14:32:42.427Z,7.33
2019-06-27T14:35:15.818Z,7.93
2019-06-27T14:37:42.127Z,8.03
2019-06-27T14:40:11.220Z,8.40
2019-06-27T14:42:39.695Z,7.30
2019-06-27T14:45:08.606Z,22.10
2019-06-27T14:47:37.076Z,27.50
2019-06-27T14:50:08.844Z,7.57
2019-06-27T14:52:37.304Z,6.70
2019-06-27T14:55:07.259Z,7.20
2019-06-27T14:57:35.943Z,7.80
2019-06-27T15:00:06.850Z,6.20
2019-06-27T15:02:35.263Z,7.03
2019-06-27T15:05:04.758Z,6.03
2019-06-27T15:07:33.254Z,5.87
2019-06-27T15:10:01.921Z,5.43
2019-06-27T15:12:34.819Z,5.50
2019-06-27T15:15:02.040Z,5.60
2019-06-27T15:17:32.160Z,5.00
2019-06-27T15:20:00.595Z,4.83
2019-06-27T15:22:29.104Z,5.67
2019-06-27T15:24:57.686Z,5.47
2019-06-27T15:27:26.135Z,5.93
2019-06-27T15:29:54.563Z,5.80
2019-06-27T15:32:23.010Z,5.63
2019-06-27T15:34:51.430Z,4.90
2019-06-27T15:37:21.803Z,5.30
2019-06-27T15:39:50.222Z,4.63
2019-06-27T15:42:18.692Z,4.67
2019-06-27T15:44:47.183Z,4.70
2019-06-27T15:47:15.798Z,5.77
2019-06-27T15:49:45.224Z,5.47
2019-06-27T15:52:13.746Z,5.10
2019-06-27T15:54:42.174Z,5.00
2019-06-27T15:57:10.679Z,5.23
2019-06-27T15:59:39.114Z,5.30
2019-06-27T16:02:07.626Z,5.20
2019-06-27T16:04:36.056Z,4.93
2019-06-27T16:07:04.703Z,5.40
2019-06-27T16:09:33.150Z,4.90
2019-06-27T16:12:01.671Z,5.77
2019-06-27T16:14:30.218Z,4.47
2019-06-27T16:16:58.728Z,5.40
2019-06-27T16:19:27.154Z,5.40
2019-06-27T16:21:55.962Z,6.20
2019-06-27T16:24:24.450Z,5.03
2019-06-27T16:26:53.021Z,6.00
2019-06-27T16:29:21.471Z,5.67
2019-06-27T16:31:49.964Z,6.27
2019-06-27T16:34:18.393Z,5.70
2019-06-27T16:36:46.907Z,6.57
2019-06-27T16:39:15.347Z,5.83
2019-06-27T16:41:44.056Z,6.63
2019-06-27T16:44:12.494Z,6.50
2019-06-27T16:46:40.931Z,6.03
2019-06-27T16:49:09.386Z,6.13
2019-06-27T16:51:37.841Z,6.00
2019-06-27T16:54:06.434Z,5.90
2019-06-27T16:56:34.857Z,5.60
2019-06-27T16:59:03.371Z,7.10
2019-06-27T17:01:31.837Z,5.73
2019-06-27T17:04:00.323Z,6.23
2019-06-27T17:06:41.280Z,6.00
2019-06-27T17:08:59.106Z,5.90
2019-06-27T17:11:27.527Z,6.00
2019-06-27T17:13:55.991Z,5.80
2019-06-27T17:16:24.466Z,5.50
2019-06-27T17:18:52.931Z,6.03
2019-06-27T17:21:21.409Z,5.80
2019-06-27T17:23:49.922Z,5.50
2019-06-27T17:26:18.358Z,5.43
2019-06-27T17:28:46.789Z,5.17
2019-06-27T17:31:15.317Z,5.40
2019-06-27T17:33:43.768Z,5.10
2019-06-27T17:36:12.199Z,5.07
2019-06-27T17:38:40.631Z,4.90
2019-06-27T17:41:09.151Z,3.90
2019-06-27T17:43:39.250Z,4.83
2019-06-27T17:46:08.011Z,4.63
2019-06-27T17:48:36.434Z,4.30
2019-06-27T17:51:07.835Z,4.47
2019-06-27T17:53:36.899Z,3.77
2019-06-27T17:56:05.411Z,3.90
2019-06-27T17:58:33.962Z,4.20
2019-06-27T18:01:02.547Z,3.77
2019-06-27T18:03:31.026Z,3.10
2019-06-27T18:05:59.490Z,2.87
2019-06-27T18:08:27.925Z,2.47
2019-06-27T18:10:56.366Z,2.10
2019-06-27T18:13:24.779Z,1.93
2019-06-27T18:15:53.245Z,2.17
2019-06-27T18:18:21.663Z,2.47
2019-06-27T18:20:50.486Z,2.10
2019-06-27T18:23:18.913Z,2.20
2019-06-27T18:25:48.976Z,2.40
2019-06-27T18:28:17.410Z,2.17
2019-06-27T18:30:45.869Z,1.83
2019-06-27T18:33:14.303Z,2.33
2019-06-27T18:35:43.032Z,2.63
2019-06-27T18:38:11.994Z,2.23
2019-06-27T18:40:42.075Z,1.93
2019-06-27T18:43:10.510Z,2.03
2019-06-27T18:45:38.970Z,1.87
2019-06-27T18:48:07.475Z,1.80
2019-06-27T18:50:36.005Z,2.07
2019-06-27T18:53:06.494Z,2.10
2019-06-27T18:55:36.596Z,2.00
2019-06-27T18:58:05.117Z,2.10
2019-06-27T19:00:33.572Z,2.10
2019-06-27T19:03:02.069Z,1.87
2019-06-27T19:05:30.496Z,1.77
2019-06-27T19:08:00.659Z,2.00
2019-06-27T19:10:29.100Z,2.13
2019-06-27T19:12:57.602Z,1.73
2019-06-27T19:15:26.102Z,1.90
2019-06-27T19:17:54.530Z,1.80
2019-06-27T19:20:36.400Z,1.87
2019-06-27T19:23:06.497Z,1.60
2019-06-27T19:25:36.583Z,1.93
2019-06-27T19:28:05.243Z,1.57
2019-06-27T19:30:35.191Z,1.83
2019-06-27T19:33:03.748Z,1.77
2019-06-27T19:35:32.306Z,1.47
2019-06-27T19:38:02.731Z,1.80
2019-06-27T19:40:31.000Z,1.73
2019-06-27T19:42:59.455Z,1.80
2019-06-27T19:45:28.038Z,1.97
2019-06-27T19:47:56.553Z,1.40
2019-06-27T19:50:24.967Z,1.63
2019-06-27T19:52:53.487Z,1.60
2019-06-27T19:55:22.002Z,1.70
2019-06-27T19:57:50.629Z,1.67
2019-06-27T20:00:19.241Z,1.60
2019-06-27T20:02:49.279Z,1.70
2019-06-27T20:05:17.764Z,1.87
2019-06-27T20:07:46.281Z,1.90
2019-06-27T20:10:15.236Z,1.73
2019-06-27T20:12:43.691Z,1.80
2019-06-27T20:15:12.675Z,1.90
2019-06-27T20:17:41.155Z,1.93
2019-06-27T20:20:09.952Z,2.00
2019-06-27T20:22:38.393Z,1.87
2019-06-27T20:25:07.641Z,1.80
2019-06-27T20:27:36.072Z,1.50
2019-06-27T20:30:07.578Z,2.27
2019-06-27T20:32:36.098Z,1.60
2019-06-27T20:35:06.742Z,2.20
2019-06-27T20:37:35.250Z,2.10
2019-06-27T20:40:08.213Z,1.87
2019-06-27T20:42:36.638Z,1.80
2019-06-27T20:45:08.697Z,1.90
2019-06-27T20:47:37.196Z,2.00
2019-06-27T20:50:06.635Z,1.93
2019-06-27T20:52:35.238Z,2.27
2019-06-27T20:55:04.259Z,1.90
2019-06-27T20:57:32.683Z,1.80
2019-06-27T21:00:01.142Z,1.80
2019-06-27T21:02:29.568Z,2.23
2019-06-27T21:04:58.032Z,2.07
2019-06-27T21:07:26.469Z,2.23
2019-06-27T21:09:55.047Z,3.00
2019-06-27T21:12:25.252Z,2.20
2019-06-27T21:14:53.775Z,2.03
2019-06-27T21:17:22.201Z,1.63
2019-06-27T21:19:50.715Z,2.57
2019-06-27T21:22:19.309Z,2.00
2019-06-27T21:24:47.911Z,2.00
2019-06-27T21:27:17.099Z,2.00
2019-06-27T21:29:45.621Z,2.20
2019-06-27T21:32:30.171Z,2.10
2019-06-27T21:34:44.331Z,3.00
2019-06-27T21:37:12.776Z,2.47
2019-06-27T21:39:41.195Z,2.60
2019-06-27T21:42:09.660Z,2.30
2019-06-27T21:44:38.135Z,2.63
2019-06-27T21:47:06.573Z,2.33
2019-06-27T21:49:35.084Z,2.20
2019-06-27T21:52:05.064Z,2.37
2019-06-27T21:54:33.507Z,2.27
2019-06-27T21:57:02.020Z,2.40
2019-06-27T21:59:30.457Z,2.80
2019-06-27T22:01:58.993Z,2.50
2019-06-27T22:04:30.492Z,2.67
2019-06-27T22:06:57.839Z,2.13
2019-06-27T22:09:26.496Z,2.37
2019-06-27T22:11:55.241Z,3.00
2019-06-27T22:14:23.698Z,2.87
2019-06-27T22:16:52.191Z,2.30
2019-06-27T22:19:20.611Z,2.33
2019-06-27T22:21:49.083Z,2.50
2019-06-27T22:24:17.550Z,2.20
2019-06-27T22:26:47.322Z,2.27
2019-06-27T22:29:15.777Z,3.10
2019-06-27T22:31:44.283Z,2.40
2019-06-27T22:34:12.696Z,3.10
2019-06-27T22:36:41.117Z,2.83
2019-06-27T22:39:39.911Z,2.73
2019-06-27T22:42:16.259Z,2.60
2019-06-27T22:45:02.459Z,2.30
2019-06-27T22:47:49.635Z,2.67
2019-06-27T22:50:21.936Z,2.70
2019-06-27T22:53:07.330Z,2.90
2019-06-27T22:55:35.950Z,3.17
2019-06-27T22:58:04.400Z,2.77
2019-06-27T23:00:32.911Z,2.70
2019-06-27T23:03:01.435Z,2.80
2019-06-27T23:05:29.924Z,2.80
2019-06-27T23:08:00.180Z,2.87
2019-06-27T23:10:28.639Z,2.60
2019-06-27T23:12:57.094Z,2.37
2019-06-27T23:15:27.115Z,2.90
2019-06-27T23:17:58.598Z,2.70
2019-06-27T23:20:27.270Z,2.67
2019-06-27T23:22:55.806Z,2.37
2019-06-27T23:25:26.977Z,2.80
2019-06-27T23:27:55.492Z,2.23
2019-06-27T23:30:24.003Z,2.60
2019-06-27T23:32:52.546Z,2.80
2019-06-27T23:35:20.982Z,2.50
2019-06-27T23:37:49.403Z,2.80
2019-06-27T23:40:18.100Z,2.50
2019-06-27T23:42:46.513Z,2.87
2019-06-27T23:45:15.032Z,2.03
2019-06-27T23:47:43.464Z,2.20
2019-06-27T23:50:12.235Z,2.87
2019-06-27T23:52:40.673Z,2.40
2019-06-27T23:55:10.721Z,2.97
2019-06-27T23:57:39.215Z,2.43
